sensor_id;sensor_type;location;lat;lon;timestamp;temperature;humidity
2539;DHT22;1280;49.760;9.664;2024-03-23T00:52:02;11.70;73.50
2539;DHT22;1280;49.760;9.664;2024-03-23T00:54:31;11.70;73.40
2539;DHT22;1280;49.760;9.664;2024-03-23T00:57:01;11.70;73.50
2539;DHT22;1280;49.760;9.664;2024-03-23T00:59:32;11.70;73.50
2539;DHT22;1280;49.760;9.664;2024-03-23T01:02:03;11.80;73.50
2539;DHT22;1280;49.760;9.664;2024-03-23T01:04:33;11.70;73.40
2539;DHT22;1280;49.760;9.664;2024-03-23T01:07:12;11.70;73.40
2539;DHT22;1280;49.760;9.664;2024-03-23T01:09:40;11.60;73.60
2539;DHT22;1280;49.760;9.664;2024-03-23T01:12:08;11.60;73.50
2539;DHT22;1280;49.760;9.664;2024-03-23T01:14:36;11.60;73.80
2539;DHT22;1280;49.760;9.664;2024-03-23T01:17:10;11.60;73.90
2539;DHT22;1280;49.760;9.664;2024-03-23T01:19:38;11.60;74.00
2539;DHT22;1280;49.760;9.664;2024-03-23T01:22:10;11.60;74.10
2539;DHT22;1280;49.760;9.664;2024-03-23T01:24:39;11.60;74.00
2539;DHT22;1280;49.760;9.664;2024-03-23T01:27:10;11.70;74.10
2539;DHT22;1280;49.760;9.664;2024-03-23T01:29:41;11.70;74.20
2539;DHT22;1280;49.760;9.664;2024-03-23T01:32:11;11.70;74.20
2539;DHT22;1280;49.760;9.664;2024-03-23T01:34:38;11.70;74.20
2539;DHT22;1280;49.760;9.664;2024-03-23T01:37:06;11.70;74.30
2539;DHT22;1280;49.760;9.664;2024-03-23T01:39:37;11.70;74.30
2539;DHT22;1280;49.760;9.664;2024-03-23T01:42:09;11.80;74.40
2539;DHT22;1280;49.760;9.664;2024-03-23T01:44:40;11.80;74.30
2539;DHT22;1280;49.760;9.664;2024-03-23T01:47:34;11.80;74.20
2539;DHT22;1280;49.760;9.664;2024-03-23T01:50:02;11.80;74.20
2539;DHT22;1280;49.760;9.664;2024-03-23T01:52:30;11.80;74.20
2539;DHT22;1280;49.760;9.664;2024-03-23T01:55:04;11.80;74.30
2539;DHT22;1280;49.760;9.664;2024-03-23T01:57:37;11.80;74.50
2539;DHT22;1280;49.760;9.664;2024-03-23T02:00:04;11.90;74.60
2539;DHT22;1280;49.760;9.664;2024-03-23T02:02:43;11.90;74.70
2539;DHT22;1280;49.760;9.664;2024-03-23T02:05:11;12.00;74.70
2539;DHT22;1280;49.760;9.664;2024-03-23T02:07:40;12.00;74.70
2539;DHT22;1280;49.760;9.664;2024-03-23T02:10:13;12.10;74.80
2539;DHT22;1280;49.760;9.664;2024-03-23T02:12:41;12.20;74.80
2539;DHT22;1280;49.760;9.664;2024-03-23T02:15:10;12.20;74.80
2539;DHT22;1280;49.760;9.664;2024-03-23T02:17:41;12.30;74.90
2539;DHT22;1280;49.760;9.664;2024-03-23T02:20:15;12.30;74.90
2539;DHT22;1280;49.760;9.664;2024-03-23T02:22:52;12.40;74.90
2539;DHT22;1280;49.760;9.664;2024-03-23T02:25:21;12.40;74.90
2539;DHT22;1280;49.760;9.664;2024-03-23T02:28:05;12.50;74.90
2539;DHT22;1280;49.760;9.664;2024-03-23T02:30:38;12.60;74.90
2539;DHT22;1280;49.760;9.664;2024-03-23T02:33:06;12.60;74.80
2539;DHT22;1280;49.760;9.664;2024-03-23T02:35:49;12.70;74.70
2539;DHT22;1280;49.760;9.664;2024-03-23T02:38:33;12.70;74.70
2539;DHT22;1280;49.760;9.664;2024-03-23T02:41:02;12.70;74.60
2539;DHT22;1280;49.760;9.664;2024-03-23T02:43:32;12.70;74.60
2539;DHT22;1280;49.760;9.664;2024-03-23T02:46:02;12.70;74.70
2539;DHT22;1280;49.760;9.664;2024-03-23T02:48:34;12.70;74.60
2539;DHT22;1280;49.760;9.664;2024-03-23T02:51:03;12.80;74.70
2539;DHT22;1280;49.760;9.664;2024-03-23T02:53:45;12.80;74.60
2539;DHT22;1280;49.760;9.664;2024-03-23T02:56:14;12.90;74.60
2539;DHT22;1280;49.760;9.664;2024-03-23T02:58:45;12.80;74.50
2539;DHT22;1280;49.760;9.664;2024-03-23T03:01:16;12.80;74.50
2539;DHT22;1280;49.760;9.664;2024-03-23T03:03:47;12.80;74.50
2539;DHT22;1280;49.760;9.664;2024-03-23T03:06:26;12.80;74.50
2539;DHT22;1280;49.760;9.664;2024-03-23T03:09:04;12.90;74.60
2539;DHT22;1280;49.760;9.664;2024-03-23T03:11:31;12.90;74.50
2539;DHT22;1280;49.760;9.664;2024-03-23T03:13:59;12.90;74.50
2539;DHT22;1280;49.760;9.664;2024-03-23T03:16:30;13.00;74.50
2539;DHT22;1280;49.760;9.664;2024-03-23T03:19:00;13.00;74.40
2539;DHT22;1280;49.760;9.664;2024-03-23T03:21:28;13.00;74.40
2539;DHT22;1280;49.760;9.664;2024-03-23T03:23:59;13.00;74.40
2539;DHT22;1280;49.760;9.664;2024-03-23T03:26:29;13.00;74.40
2539;DHT22;1280;49.760;9.664;2024-03-23T03:29:10;13.00;74.40
2539;DHT22;1280;49.760;9.664;2024-03-23T03:31:53;13.00;74.40
2539;DHT22;1280;49.760;9.664;2024-03-23T03:34:23;13.00;74.40
2539;DHT22;1280;49.760;9.664;2024-03-23T03:36:50;13.00;74.40
2539;DHT22;1280;49.760;9.664;2024-03-23T03:39:21;13.00;74.50
2539;DHT22;1280;49.760;9.664;2024-03-23T03:41:52;13.00;74.40
2539;DHT22;1280;49.760;9.664;2024-03-23T03:44:19;13.10;74.40
2539;DHT22;1280;49.760;9.664;2024-03-23T03:46:48;13.10;74.30
2539;DHT22;1280;49.760;9.664;2024-03-23T03:49:17;13.10;74.40
2539;DHT22;1280;49.760;9.664;2024-03-23T03:51:48;13.00;74.50
2539;DHT22;1280;49.760;9.664;2024-03-23T03:54:16;13.00;74.50
2539;DHT22;1280;49.760;9.664;2024-03-23T03:56:45;13.00;74.60
2539;DHT22;1280;49.760;9.664;2024-03-23T03:59:21;13.00;74.60
2539;DHT22;1280;49.760;9.664;2024-03-23T04:01:50;13.00;74.70
2539;DHT22;1280;49.760;9.664;2024-03-23T04:04:21;13.00;74.80
2539;DHT22;1280;49.760;9.664;2024-03-23T04:06:49;13.00;74.80
2539;DHT22;1280;49.760;9.664;2024-03-23T04:09:18;13.00;74.80
2539;DHT22;1280;49.760;9.664;2024-03-23T04:11:46;13.00;74.80
2539;DHT22;1280;49.760;9.664;2024-03-23T04:14:17;13.00;74.80
2539;DHT22;1280;49.760;9.664;2024-03-23T04:16:51;13.00;74.80
2539;DHT22;1280;49.760;9.664;2024-03-23T04:19:23;13.00;74.90
2539;DHT22;1280;49.760;9.664;2024-03-23T04:21:50;13.00;74.90
2539;DHT22;1280;49.760;9.664;2024-03-23T04:24:21;13.00;75.00
2539;DHT22;1280;49.760;9.664;2024-03-23T04:26:51;13.00;75.00
2539;DHT22;1280;49.760;9.664;2024-03-23T04:29:18;13.00;75.20
2539;DHT22;1280;49.760;9.664;2024-03-23T04:31:49;13.00;75.20
2539;DHT22;1280;49.760;9.664;2024-03-23T04:34:21;13.00;75.20
2539;DHT22;1280;49.760;9.664;2024-03-23T04:36:54;13.00;75.30
2539;DHT22;1280;49.760;9.664;2024-03-23T04:39:22;13.00;75.30
2539;DHT22;1280;49.760;9.664;2024-03-23T04:41:52;13.00;75.30
2539;DHT22;1280;49.760;9.664;2024-03-23T04:44:22;13.00;75.30
2539;DHT22;1280;49.760;9.664;2024-03-23T04:46:51;13.00;75.30
2539;DHT22;1280;49.760;9.664;2024-03-23T04:49:35;13.00;75.40
2539;DHT22;1280;49.760;9.664;2024-03-23T04:52:07;13.00;75.40
2539;DHT22;1280;49.760;9.664;2024-03-23T04:54:38;13.00;75.40
2539;DHT22;1280;49.760;9.664;2024-03-23T04:57:15;13.00;75.40
2539;DHT22;1280;49.760;9.664;2024-03-23T04:59:49;13.00;75.40
2539;DHT22;1280;49.760;9.664;2024-03-23T05:02:17;13.00;75.40
2539;DHT22;1280;49.760;9.664;2024-03-23T05:05:00;13.00;75.40
2539;DHT22;1280;49.760;9.664;2024-03-23T05:07:36;13.00;75.40
2539;DHT22;1280;49.760;9.664;2024-03-23T05:10:18;13.00;75.50
2539;DHT22;1280;49.760;9.664;2024-03-23T05:12:50;13.00;75.50
2539;DHT22;1280;49.760;9.664;2024-03-23T05:15:17;13.00;75.40
2539;DHT22;1280;49.760;9.664;2024-03-23T05:18:01;13.00;75.40
2539;DHT22;1280;49.760;9.664;2024-03-23T05:20:37;13.00;75.30
2539;DHT22;1280;49.760;9.664;2024-03-23T05:23:05;13.00;75.20
2539;DHT22;1280;49.760;9.664;2024-03-23T05:25:37;13.00;75.20
2539;DHT22;1280;49.760;9.664;2024-03-23T05:28:09;12.90;75.10
2539;DHT22;1280;49.760;9.664;2024-03-23T05:30:41;12.90;75.10
2539;DHT22;1280;49.760;9.664;2024-03-23T05:33:09;12.90;75.00
2539;DHT22;1280;49.760;9.664;2024-03-23T05:35:40;12.90;75.00
2539;DHT22;1280;49.760;9.664;2024-03-23T05:38:06;12.90;74.80
2539;DHT22;1280;49.760;9.664;2024-03-23T05:40:54;12.90;74.80
2539;DHT22;1280;49.760;9.664;2024-03-23T05:43:21;12.90;74.60
2539;DHT22;1280;49.760;9.664;2024-03-23T05:45:53;12.90;74.70
2539;DHT22;1280;49.760;9.664;2024-03-23T05:48:32;12.90;74.80
2539;DHT22;1280;49.760;9.664;2024-03-23T05:51:05;12.80;74.80
2539;DHT22;1280;49.760;9.664;2024-03-23T05:53:45;12.80;74.80
2539;DHT22;1280;49.760;9.664;2024-03-23T05:56:21;12.80;75.00
2539;DHT22;1280;49.760;9.664;2024-03-23T05:58:49;12.70;75.10
2539;DHT22;1280;49.760;9.664;2024-03-23T06:01:20;12.60;75.20
2539;DHT22;1280;49.760;9.664;2024-03-23T06:03:51;12.50;75.40
2539;DHT22;1280;49.760;9.664;2024-03-23T06:06:25;12.40;75.70
2539;DHT22;1280;49.760;9.664;2024-03-23T06:08:54;12.40;76.00
2539;DHT22;1280;49.760;9.664;2024-03-23T06:11:36;12.40;76.10
2539;DHT22;1280;49.760;9.664;2024-03-23T06:14:09;12.30;76.40
2539;DHT22;1280;49.760;9.664;2024-03-23T06:16:37;12.30;76.40
2539;DHT22;1280;49.760;9.664;2024-03-23T06:19:10;12.20;76.50
2539;DHT22;1280;49.760;9.664;2024-03-23T06:21:36;12.20;76.60
2539;DHT22;1280;49.760;9.664;2024-03-23T06:24:05;12.10;76.80
2539;DHT22;1280;49.760;9.664;2024-03-23T06:26:32;11.90;76.90
2539;DHT22;1280;49.760;9.664;2024-03-23T06:29:01;11.90;76.90
2539;DHT22;1280;49.760;9.664;2024-03-23T06:31:29;11.80;77.00
2539;DHT22;1280;49.760;9.664;2024-03-23T06:34:11;11.80;77.00
2539;DHT22;1280;49.760;9.664;2024-03-23T06:36:38;11.70;77.00
2539;DHT22;1280;49.760;9.664;2024-03-23T06:39:08;11.70;76.90
2539;DHT22;1280;49.760;9.664;2024-03-23T06:41:39;11.60;76.80
2539;DHT22;1280;49.760;9.664;2024-03-23T06:44:13;11.60;76.70
2539;DHT22;1280;49.760;9.664;2024-03-23T06:46:40;11.50;76.70
2539;DHT22;1280;49.760;9.664;2024-03-23T06:49:11;11.40;76.70
2539;DHT22;1280;49.760;9.664;2024-03-23T06:51:39;11.40;76.70
2539;DHT22;1280;49.760;9.664;2024-03-23T06:54:08;11.30;76.80
2539;DHT22;1280;49.760;9.664;2024-03-23T06:56:34;11.30;76.70
2539;DHT22;1280;49.760;9.664;2024-03-23T06:59:06;11.30;76.60
2539;DHT22;1280;49.760;9.664;2024-03-23T07:01:42;11.20;76.40
2539;DHT22;1280;49.760;9.664;2024-03-23T07:04:14;11.10;76.40
2539;DHT22;1280;49.760;9.664;2024-03-23T07:06:44;11.00;76.40
2539;DHT22;1280;49.760;9.664;2024-03-23T07:09:14;11.00;76.50
2539;DHT22;1280;49.760;9.664;2024-03-23T07:11:42;10.90;76.40
2539;DHT22;1280;49.760;9.664;2024-03-23T07:14:12;10.80;76.30
2539;DHT22;1280;49.760;9.664;2024-03-23T07:16:41;10.70;76.20
2539;DHT22;1280;49.760;9.664;2024-03-23T07:19:30;10.50;76.10
2539;DHT22;1280;49.760;9.664;2024-03-23T07:22:00;10.50;76.40
2539;DHT22;1280;49.760;9.664;2024-03-23T07:24:34;10.50;76.50
2539;DHT22;1280;49.760;9.664;2024-03-23T07:27:03;10.50;76.50
2539;DHT22;1280;49.760;9.664;2024-03-23T07:29:30;10.50;76.60
2539;DHT22;1280;49.760;9.664;2024-03-23T07:32:00;10.60;76.60
2539;DHT22;1280;49.760;9.664;2024-03-23T07:34:35;10.60;76.50
2539;DHT22;1280;49.760;9.664;2024-03-23T07:37:01;10.60;76.50
2539;DHT22;1280;49.760;9.664;2024-03-23T07:39:31;10.70;76.60
2539;DHT22;1280;49.760;9.664;2024-03-23T07:42:02;10.70;76.60
2539;DHT22;1280;49.760;9.664;2024-03-23T07:44:33;10.70;76.50
2539;DHT22;1280;49.760;9.664;2024-03-23T07:47:03;10.70;76.30
2539;DHT22;1280;49.760;9.664;2024-03-23T07:49:37;10.60;76.40
2539;DHT22;1280;49.760;9.664;2024-03-23T07:52:04;10.60;76.40
2539;DHT22;1280;49.760;9.664;2024-03-23T07:54:35;10.60;76.40
2539;DHT22;1280;49.760;9.664;2024-03-23T07:57:12;10.60;76.40
2539;DHT22;1280;49.760;9.664;2024-03-23T07:59:42;10.40;76.30
2539;DHT22;1280;49.760;9.664;2024-03-23T08:02:12;10.20;76.40
2539;DHT22;1280;49.760;9.664;2024-03-23T08:05:03;10.10;76.90
2539;DHT22;1280;49.760;9.664;2024-03-23T08:07:36;10.10;77.10
2539;DHT22;1280;49.760;9.664;2024-03-23T08:10:05;10.00;77.00
2539;DHT22;1280;49.760;9.664;2024-03-23T08:12:34;9.90;76.90
2539;DHT22;1280;49.760;9.664;2024-03-23T08:15:02;9.90;77.20
2539;DHT22;1280;49.760;9.664;2024-03-23T08:17:32;9.90;77.30
2539;DHT22;1280;49.760;9.664;2024-03-23T08:20:05;9.90;77.40
2539;DHT22;1280;49.760;9.664;2024-03-23T08:22:35;10.00;77.30
2539;DHT22;1280;49.760;9.664;2024-03-23T08:25:06;9.90;77.30
2539;DHT22;1280;49.760;9.664;2024-03-23T08:27:37;10.00;77.30
2539;DHT22;1280;49.760;9.664;2024-03-23T08:30:05;10.00;77.00
2539;DHT22;1280;49.760;9.664;2024-03-23T08:32:34;9.90;76.90
2539;DHT22;1280;49.760;9.664;2024-03-23T08:35:16;9.80;76.70
2539;DHT22;1280;49.760;9.664;2024-03-23T08:37:44;9.90;76.70
2539;DHT22;1280;49.760;9.664;2024-03-23T08:40:11;9.80;76.50
2539;DHT22;1280;49.760;9.664;2024-03-23T08:42:53;9.80;76.30
2539;DHT22;1280;49.760;9.664;2024-03-23T08:45:29;9.60;76.10
2539;DHT22;1280;49.760;9.664;2024-03-23T08:47:56;9.60;76.20
2539;DHT22;1280;49.760;9.664;2024-03-23T08:50:28;9.50;76.20
2539;DHT22;1280;49.760;9.664;2024-03-23T08:52:55;9.50;76.30
2539;DHT22;1280;49.760;9.664;2024-03-23T08:55:28;9.50;76.40
2539;DHT22;1280;49.760;9.664;2024-03-23T08:57:55;9.50;76.70
2539;DHT22;1280;49.760;9.664;2024-03-23T09:00:31;9.60;76.80
2539;DHT22;1280;49.760;9.664;2024-03-23T09:02:58;9.70;76.70
2539;DHT22;1280;49.760;9.664;2024-03-23T09:05:33;9.80;76.80
2539;DHT22;1280;49.760;9.664;2024-03-23T09:08:07;10.00;76.80
2539;DHT22;1280;49.760;9.664;2024-03-23T09:10:39;10.10;76.80
2539;DHT22;1280;49.760;9.664;2024-03-23T09:13:10;10.20;76.50
2539;DHT22;1280;49.760;9.664;2024-03-23T09:15:47;10.20;76.20
2539;DHT22;1280;49.760;9.664;2024-03-23T09:18:15;10.30;76.10
2539;DHT22;1280;49.760;9.664;2024-03-23T09:20:48;10.20;75.50
2539;DHT22;1280;49.760;9.664;2024-03-23T09:23:16;10.20;75.60
2539;DHT22;1280;49.760;9.664;2024-03-23T09:25:44;10.30;75.60
2539;DHT22;1280;49.760;9.664;2024-03-23T09:28:14;10.30;75.10
2539;DHT22;1280;49.760;9.664;2024-03-23T09:30:49;10.30;74.80
2539;DHT22;1280;49.760;9.664;2024-03-23T09:33:20;10.10;73.80
2539;DHT22;1280;49.760;9.664;2024-03-23T09:35:54;10.10;74.00
2539;DHT22;1280;49.760;9.664;2024-03-23T09:38:23;10.10;74.20
2539;DHT22;1280;49.760;9.664;2024-03-23T09:40:54;10.10;74.20
2539;DHT22;1280;49.760;9.664;2024-03-23T09:43:26;10.10;74.10
2539;DHT22;1280;49.760;9.664;2024-03-23T09:45:54;10.10;74.20
2539;DHT22;1280;49.760;9.664;2024-03-23T09:48:22;10.20;74.40
2539;DHT22;1280;49.760;9.664;2024-03-23T09:51:03;10.20;74.40
2539;DHT22;1280;49.760;9.664;2024-03-23T09:53:35;10.40;74.20
2539;DHT22;1280;49.760;9.664;2024-03-23T09:56:04;10.40;74.20
2539;DHT22;1280;49.760;9.664;2024-03-23T09:58:32;10.40;74.10
2539;DHT22;1280;49.760;9.664;2024-03-23T10:01:02;10.50;74.10
2539;DHT22;1280;49.760;9.664;2024-03-23T10:03:41;10.50;74.00
2539;DHT22;1280;49.760;9.664;2024-03-23T10:06:22;10.50;73.50
2539;DHT22;1280;49.760;9.664;2024-03-23T10:08:52;10.50;73.30
2539;DHT22;1280;49.760;9.664;2024-03-23T10:11:22;10.50;73.30
2539;DHT22;1280;49.760;9.664;2024-03-23T10:13:49;10.60;73.30
2539;DHT22;1280;49.760;9.664;2024-03-23T10:16:27;10.60;73.30
2539;DHT22;1280;49.760;9.664;2024-03-23T10:18:54;10.70;73.10
2539;DHT22;1280;49.760;9.664;2024-03-23T10:21:31;10.70;72.70
2539;DHT22;1280;49.760;9.664;2024-03-23T10:24:09;10.70;72.40
2539;DHT22;1280;49.760;9.664;2024-03-23T10:26:42;10.70;71.90
2539;DHT22;1280;49.760;9.664;2024-03-23T10:29:09;10.70;71.70
2539;DHT22;1280;49.760;9.664;2024-03-23T10:31:42;10.70;71.60
2539;DHT22;1280;49.760;9.664;2024-03-23T10:34:12;10.80;71.50
2539;DHT22;1280;49.760;9.664;2024-03-23T10:36:45;10.80;71.20
2539;DHT22;1280;49.760;9.664;2024-03-23T10:39:11;10.90;71.20
2539;DHT22;1280;49.760;9.664;2024-03-23T10:41:45;10.90;71.00
2539;DHT22;1280;49.760;9.664;2024-03-23T10:44:13;11.00;70.80
2539;DHT22;1280;49.760;9.664;2024-03-23T10:46:58;11.00;69.70
2539;DHT22;1280;49.760;9.664;2024-03-23T10:49:26;10.90;69.70
2539;DHT22;1280;49.760;9.664;2024-03-23T10:52:06;11.00;69.60
2539;DHT22;1280;49.760;9.664;2024-03-23T10:54:35;11.00;69.10
2539;DHT22;1280;49.760;9.664;2024-03-23T10:57:18;11.00;68.70
2539;DHT22;1280;49.760;9.664;2024-03-23T10:59:48;11.00;68.90
2539;DHT22;1280;49.760;9.664;2024-03-23T11:02:19;11.10;68.70
2539;DHT22;1280;49.760;9.664;2024-03-23T11:04:49;11.20;68.70
2539;DHT22;1280;49.760;9.664;2024-03-23T11:07:40;11.30;68.50
2539;DHT22;1280;49.760;9.664;2024-03-23T11:10:25;11.40;68.30
2539;DHT22;1280;49.760;9.664;2024-03-23T11:12:53;11.40;68.20
2539;DHT22;1280;49.760;9.664;2024-03-23T11:15:34;11.50;67.90
2539;DHT22;1280;49.760;9.664;2024-03-23T11:18:03;11.60;67.80
2539;DHT22;1280;49.760;9.664;2024-03-23T11:20:35;11.60;67.30
2539;DHT22;1280;49.760;9.664;2024-03-23T11:23:06;11.60;67.10
2539;DHT22;1280;49.760;9.664;2024-03-23T11:25:37;11.60;66.70
2539;DHT22;1280;49.760;9.664;2024-03-23T11:28:11;11.60;66.60
2539;DHT22;1280;49.760;9.664;2024-03-23T11:30:37;11.70;66.40
2539;DHT22;1280;49.760;9.664;2024-03-23T11:33:08;11.70;66.30
2539;DHT22;1280;49.760;9.664;2024-03-23T11:35:37;11.70;66.20
2539;DHT22;1280;49.760;9.664;2024-03-23T11:38:16;11.70;66.10
2539;DHT22;1280;49.760;9.664;2024-03-23T11:40:46;11.80;66.00
2539;DHT22;1280;49.760;9.664;2024-03-23T11:43:16;11.80;65.90
2539;DHT22;1280;49.760;9.664;2024-03-23T11:45:46;11.80;65.70
2539;DHT22;1280;49.760;9.664;2024-03-23T11:48:30;11.80;65.40
2539;DHT22;1280;49.760;9.664;2024-03-23T11:51:12;11.80;65.20
2539;DHT22;1280;49.760;9.664;2024-03-23T11:53:55;11.70;64.90
2539;DHT22;1280;49.760;9.664;2024-03-23T11:56:39;11.80;64.80
2539;DHT22;1280;49.760;9.664;2024-03-23T11:59:08;11.80;64.80
2539;DHT22;1280;49.760;9.664;2024-03-23T12:01:45;11.90;64.70
2539;DHT22;1280;49.760;9.664;2024-03-23T12:04:11;11.80;64.50
2539;DHT22;1280;49.760;9.664;2024-03-23T12:06:47;11.90;64.30
2539;DHT22;1280;49.760;9.664;2024-03-23T12:09:19;11.90;64.20
2539;DHT22;1280;49.760;9.664;2024-03-23T12:11:49;12.00;63.60
2539;DHT22;1280;49.760;9.664;2024-03-23T12:14:18;12.00;63.10
2539;DHT22;1280;49.760;9.664;2024-03-23T12:17:12;12.00;63.00
2539;DHT22;1280;49.760;9.664;2024-03-23T12:19:43;11.90;62.80
2539;DHT22;1280;49.760;9.664;2024-03-23T12:22:13;11.90;62.00
2539;DHT22;1280;49.760;9.664;2024-03-23T12:24:48;11.80;62.20
2539;DHT22;1280;49.760;9.664;2024-03-23T12:27:17;11.70;62.30
2539;DHT22;1280;49.760;9.664;2024-03-23T12:29:45;11.60;62.60
2539;DHT22;1280;49.760;9.664;2024-03-23T12:32:15;11.50;62.80
2539;DHT22;1280;49.760;9.664;2024-03-23T12:34:44;11.30;63.00
2539;DHT22;1280;49.760;9.664;2024-03-23T12:37:10;11.30;63.40
2539;DHT22;1280;49.760;9.664;2024-03-23T12:39:50;11.20;63.80
2539;DHT22;1280;49.760;9.664;2024-03-23T12:42:18;11.20;64.10
2539;DHT22;1280;49.760;9.664;2024-03-23T12:44:48;11.20;64.30
2539;DHT22;1280;49.760;9.664;2024-03-23T12:47:17;11.10;64.50
2539;DHT22;1280;49.760;9.664;2024-03-23T12:49:48;11.10;64.80
2539;DHT22;1280;49.760;9.664;2024-03-23T12:52:18;11.20;64.90
2539;DHT22;1280;49.760;9.664;2024-03-23T12:54:50;11.10;65.10
2539;DHT22;1280;49.760;9.664;2024-03-23T12:57:19;11.10;65.10
2539;DHT22;1280;49.760;9.664;2024-03-23T12:59:45;11.10;65.20
2539;DHT22;1280;49.760;9.664;2024-03-23T13:02:20;11.10;65.20
2539;DHT22;1280;49.760;9.664;2024-03-23T13:04:51;11.20;65.30
2539;DHT22;1280;49.760;9.664;2024-03-23T13:07:21;11.10;65.30
2539;DHT22;1280;49.760;9.664;2024-03-23T13:09:56;11.20;65.40
2539;DHT22;1280;49.760;9.664;2024-03-23T13:12:27;11.20;65.30
2539;DHT22;1280;49.760;9.664;2024-03-23T13:14:56;11.20;65.20
2539;DHT22;1280;49.760;9.664;2024-03-23T13:17:24;11.30;65.10
2539;DHT22;1280;49.760;9.664;2024-03-23T13:19:53;11.30;65.20
2539;DHT22;1280;49.760;9.664;2024-03-23T13:22:24;11.30;65.00
2539;DHT22;1280;49.760;9.664;2024-03-23T13:25:06;11.30;64.80
2539;DHT22;1280;49.760;9.664;2024-03-23T13:27:37;11.30;64.90
2539;DHT22;1280;49.760;9.664;2024-03-23T13:30:13;11.40;65.10
2539;DHT22;1280;49.760;9.664;2024-03-23T13:32:43;11.50;65.20
2539;DHT22;1280;49.760;9.664;2024-03-23T13:35:10;11.50;65.00
2539;DHT22;1280;49.760;9.664;2024-03-23T13:37:45;11.60;65.10
2539;DHT22;1280;49.760;9.664;2024-03-23T13:40:17;11.60;65.20
2539;DHT22;1280;49.760;9.664;2024-03-23T13:43:03;11.70;65.00
2539;DHT22;1280;49.760;9.664;2024-03-23T13:45:31;11.70;64.90
2539;DHT22;1280;49.760;9.664;2024-03-23T13:48:00;11.80;64.90
2539;DHT22;1280;49.760;9.664;2024-03-23T13:50:29;11.80;64.80
2539;DHT22;1280;49.760;9.664;2024-03-23T13:53:00;11.80;64.70
2539;DHT22;1280;49.760;9.664;2024-03-23T13:55:35;11.80;64.70
2539;DHT22;1280;49.760;9.664;2024-03-23T13:58:03;11.80;64.60
2539;DHT22;1280;49.760;9.664;2024-03-23T14:00:38;11.80;64.30
2539;DHT22;1280;49.760;9.664;2024-03-23T14:03:05;11.80;64.00
2539;DHT22;1280;49.760;9.664;2024-03-23T14:05:37;11.70;64.00
2539;DHT22;1280;49.760;9.664;2024-03-23T14:08:07;11.60;64.00
2539;DHT22;1280;49.760;9.664;2024-03-23T14:10:40;11.60;63.90
2539;DHT22;1280;49.760;9.664;2024-03-23T14:13:10;11.50;64.00
2539;DHT22;1280;49.760;9.664;2024-03-23T14:15:41;11.50;63.90
2539;DHT22;1280;49.760;9.664;2024-03-23T14:18:08;11.50;63.80
2539;DHT22;1280;49.760;9.664;2024-03-23T14:20:36;11.40;63.80
2539;DHT22;1280;49.760;9.664;2024-03-23T14:23:04;11.40;63.70
2539;DHT22;1280;49.760;9.664;2024-03-23T14:25:54;11.30;63.70
2539;DHT22;1280;49.760;9.664;2024-03-23T14:28:26;11.30;63.70
2539;DHT22;1280;49.760;9.664;2024-03-23T14:30:56;11.20;63.70
2539;DHT22;1280;49.760;9.664;2024-03-23T14:33:24;11.20;63.70
2539;DHT22;1280;49.760;9.664;2024-03-23T14:35:55;11.20;63.90
2539;DHT22;1280;49.760;9.664;2024-03-23T14:38:29;11.20;63.70
2539;DHT22;1280;49.760;9.664;2024-03-23T14:41:10;11.30;63.90
2539;DHT22;1280;49.760;9.664;2024-03-23T14:43:38;11.30;63.80
2539;DHT22;1280;49.760;9.664;2024-03-23T14:46:12;11.30;63.90
2539;DHT22;1280;49.760;9.664;2024-03-23T14:48:40;11.30;63.90
2539;DHT22;1280;49.760;9.664;2024-03-23T14:51:09;11.40;63.90
2539;DHT22;1280;49.760;9.664;2024-03-23T14:53:39;11.40;63.90
2539;DHT22;1280;49.760;9.664;2024-03-23T14:56:11;11.40;63.80
2539;DHT22;1280;49.760;9.664;2024-03-23T14:58:44;11.40;63.90
2539;DHT22;1280;49.760;9.664;2024-03-23T15:01:17;11.40;63.70
2539;DHT22;1280;49.760;9.664;2024-03-23T15:03:47;11.30;63.60
2539;DHT22;1280;49.760;9.664;2024-03-23T15:06:25;11.30;63.60
2539;DHT22;1280;49.760;9.664;2024-03-23T15:08:53;11.10;64.00
2539;DHT22;1280;49.760;9.664;2024-03-23T15:11:25;11.10;64.40
2539;DHT22;1280;49.760;9.664;2024-03-23T15:13:53;11.10;64.70
2539;DHT22;1280;49.760;9.664;2024-03-23T15:16:22;11.00;64.80
2539;DHT22;1280;49.760;9.664;2024-03-23T15:18:50;10.90;64.90
2539;DHT22;1280;49.760;9.664;2024-03-23T15:21:20;11.00;65.10
2539;DHT22;1280;49.760;9.664;2024-03-23T15:23:50;11.00;65.00
2539;DHT22;1280;49.760;9.664;2024-03-23T15:26:31;11.00;65.00
2539;DHT22;1280;49.760;9.664;2024-03-23T15:29:01;11.00;65.00
2539;DHT22;1280;49.760;9.664;2024-03-23T15:31:38;10.90;65.00
2539;DHT22;1280;49.760;9.664;2024-03-23T15:34:06;10.90;65.20
2539;DHT22;1280;49.760;9.664;2024-03-23T15:36:36;10.80;64.90
2539;DHT22;1280;49.760;9.664;2024-03-23T15:39:06;10.80;65.10
2539;DHT22;1280;49.760;9.664;2024-03-23T15:41:40;10.80;65.10
2539;DHT22;1280;49.760;9.664;2024-03-23T15:44:08;10.90;65.20
2539;DHT22;1280;49.760;9.664;2024-03-23T15:46:45;10.90;65.20
2539;DHT22;1280;49.760;9.664;2024-03-23T15:49:13;10.90;65.00
2539;DHT22;1280;49.760;9.664;2024-03-23T15:51:43;10.90;64.80
2539;DHT22;1280;49.760;9.664;2024-03-23T15:54:29;10.90;64.90
2539;DHT22;1280;49.760;9.664;2024-03-23T15:57:06;10.90;64.80
2539;DHT22;1280;49.760;9.664;2024-03-23T15:59:34;10.90;64.80
2539;DHT22;1280;49.760;9.664;2024-03-23T16:02:06;10.80;64.80
2539;DHT22;1280;49.760;9.664;2024-03-23T16:04:38;10.80;64.80
2539;DHT22;1280;49.760;9.664;2024-03-23T16:07:06;10.80;64.70
2539;DHT22;1280;49.760;9.664;2024-03-23T16:09:35;10.80;64.60
2539;DHT22;1280;49.760;9.664;2024-03-23T16:12:04;10.80;64.60
2539;DHT22;1280;49.760;9.664;2024-03-23T16:14:31;10.80;64.50
2539;DHT22;1280;49.760;9.664;2024-03-23T16:17:16;10.70;64.50
2539;DHT22;1280;49.760;9.664;2024-03-23T16:19:44;10.70;64.50
2539;DHT22;1280;49.760;9.664;2024-03-23T16:22:13;10.70;64.50
2539;DHT22;1280;49.760;9.664;2024-03-23T16:24:52;10.70;64.40
2539;DHT22;1280;49.760;9.664;2024-03-23T16:27:23;10.60;64.40
2539;DHT22;1280;49.760;9.664;2024-03-23T16:29:56;10.50;64.60
2539;DHT22;1280;49.760;9.664;2024-03-23T16:32:35;10.40;64.80
2539;DHT22;1280;49.760;9.664;2024-03-23T16:35:03;10.20;65.00
2539;DHT22;1280;49.760;9.664;2024-03-23T16:37:30;10.10;65.30
2539;DHT22;1280;49.760;9.664;2024-03-23T16:40:01;10.00;65.50
2539;DHT22;1280;49.760;9.664;2024-03-23T16:42:35;9.90;65.80
2539;DHT22;1280;49.760;9.664;2024-03-23T16:45:08;9.90;66.20
2539;DHT22;1280;49.760;9.664;2024-03-23T16:47:35;9.80;66.60
2539;DHT22;1280;49.760;9.664;2024-03-23T16:50:08;9.70;66.70
2539;DHT22;1280;49.760;9.664;2024-03-23T16:52:37;9.60;67.10
2539;DHT22;1280;49.760;9.664;2024-03-23T16:55:15;9.50;67.30
2539;DHT22;1280;49.760;9.664;2024-03-23T16:57:46;9.50;67.40
2539;DHT22;1280;49.760;9.664;2024-03-23T17:00:17;9.40;67.70
2539;DHT22;1280;49.760;9.664;2024-03-23T17:02:46;9.30;67.90
2539;DHT22;1280;49.760;9.664;2024-03-23T17:05:37;9.30;68.10
2539;DHT22;1280;49.760;9.664;2024-03-23T17:08:10;9.30;68.40
2539;DHT22;1280;49.760;9.664;2024-03-23T17:10:38;9.20;68.40
2539;DHT22;1280;49.760;9.664;2024-03-23T17:13:11;9.20;68.50
2539;DHT22;1280;49.760;9.664;2024-03-23T17:15:45;9.20;68.70
2539;DHT22;1280;49.760;9.664;2024-03-23T17:18:14;9.10;68.80
2539;DHT22;1280;49.760;9.664;2024-03-23T17:20:41;9.10;68.80
2539;DHT22;1280;49.760;9.664;2024-03-23T17:23:12;9.00;69.00